sensor_id;sensor_type;location;lat;lon;timestamp;temperature;humidity
16114;DHT22;8161;-33.910;151.156;2022-08-19T00:01:46;17.10;99.90
16114;DHT22;8161;-33.910;151.156;2022-08-19T00:04:15;17.10;99.90
16114;DHT22;8161;-33.910;151.156;2022-08-19T00:06:45;17.10;99.90
16114;DHT22;8161;-33.910;151.156;2022-08-19T00:09:15;17.00;99.90
16114;DHT22;8161;-33.910;151.156;2022-08-19T00:11:44;17.00;99.90
16114;DHT22;8161;-33.910;151.156;2022-08-19T00:14:13;17.00;99.90
16114;DHT22;8161;-33.910;151.156;2022-08-19T00:16:43;17.00;99.90
16114;DHT22;8161;-33.910;151.156;2022-08-19T00:19:11;17.00;99.90
16114;DHT22;8161;-33.910;151.156;2022-08-19T00:21:39;17.10;99.90
16114;DHT22;8161;-33.910;151.156;2022-08-19T00:24:08;17.00;99.90
16114;DHT22;8161;-33.910;151.156;2022-08-19T00:26:37;17.00;99.90
16114;DHT22;8161;-33.910;151.156;2022-08-19T00:29:07;17.10;99.90
16114;DHT22;8161;-33.910;151.156;2022-08-19T00:31:34;17.10;99.90
16114;DHT22;8161;-33.910;151.156;2022-08-19T00:34:02;17.20;99.90
16114;DHT22;8161;-33.910;151.156;2022-08-19T00:36:30;17.30;99.90
16114;DHT22;8161;-33.910;151.156;2022-08-19T00:39:00;17.40;99.90
16114;DHT22;8161;-33.910;151.156;2022-08-19T00:41:27;17.60;99.90
16114;DHT22;8161;-33.910;151.156;2022-08-19T00:46:43;17.90;99.90
16114;DHT22;8161;-33.910;151.156;2022-08-19T00:49:17;18.00;99.90
16114;DHT22;8161;-33.910;151.156;2022-08-19T00:51:48;18.00;99.90
16114;DHT22;8161;-33.910;151.156;2022-08-19T00:54:17;18.00;99.90
16114;DHT22;8161;-33.910;151.156;2022-08-19T00:56:45;18.00;99.90
16114;DHT22;8161;-33.910;151.156;2022-08-19T00:59:13;18.00;99.90
16114;DHT22;8161;-33.910;151.156;2022-08-19T01:01:42;18.00;99.90
16114;DHT22;8161;-33.910;151.156;2022-08-19T01:04:11;18.00;99.90
16114;DHT22;8161;-33.910;151.156;2022-08-19T01:06:39;18.00;99.90
16114;DHT22;8161;-33.910;151.156;2022-08-19T01:09:08;18.10;99.90
16114;DHT22;8161;-33.910;151.156;2022-08-19T01:11:39;18.10;99.90
16114;DHT22;8161;-33.910;151.156;2022-08-19T01:14:08;18.10;99.90
16114;DHT22;8161;-33.910;151.156;2022-08-19T01:16:37;18.20;99.90
16114;DHT22;8161;-33.910;151.156;2022-08-19T01:19:21;18.30;99.90
16114;DHT22;8161;-33.910;151.156;2022-08-19T01:21:58;18.40;99.90
16114;DHT22;8161;-33.910;151.156;2022-08-19T01:24:27;18.50;99.90
16114;DHT22;8161;-33.910;151.156;2022-08-19T01:26:55;18.70;99.90
16114;DHT22;8161;-33.910;151.156;2022-08-19T01:29:22;18.80;99.90
16114;DHT22;8161;-33.910;151.156;2022-08-19T01:31:49;19.20;99.90
16114;DHT22;8161;-33.910;151.156;2022-08-19T01:34:19;19.60;99.90
16114;DHT22;8161;-33.910;151.156;2022-08-19T01:36:48;20.00;99.90
16114;DHT22;8161;-33.910;151.156;2022-08-19T01:39:24;20.20;99.90
16114;DHT22;8161;-33.910;151.156;2022-08-19T01:41:52;20.50;99.90
16114;DHT22;8161;-33.910;151.156;2022-08-19T01:44:21;20.80;99.90
16114;DHT22;8161;-33.910;151.156;2022-08-19T01:46:51;20.90;99.90
16114;DHT22;8161;-33.910;151.156;2022-08-19T01:49:20;21.00;99.90
16114;DHT22;8161;-33.910;151.156;2022-08-19T01:51:49;21.00;99.90
16114;DHT22;8161;-33.910;151.156;2022-08-19T01:54:17;20.90;99.90
16114;DHT22;8161;-33.910;151.156;2022-08-19T01:56:45;20.80;99.90
16114;DHT22;8161;-33.910;151.156;2022-08-19T01:59:15;20.70;99.90
16114;DHT22;8161;-33.910;151.156;2022-08-19T02:01:43;20.60;99.90
16114;DHT22;8161;-33.910;151.156;2022-08-19T02:04:11;20.60;99.90
16114;DHT22;8161;-33.910;151.156;2022-08-19T02:06:38;20.70;99.90
16114;DHT22;8161;-33.910;151.156;2022-08-19T02:09:07;20.60;99.90
16114;DHT22;8161;-33.910;151.156;2022-08-19T02:11:36;20.50;99.90
16114;DHT22;8161;-33.910;151.156;2022-08-19T02:14:06;20.40;99.90
16114;DHT22;8161;-33.910;151.156;2022-08-19T02:16:35;20.30;99.90
16114;DHT22;8161;-33.910;151.156;2022-08-19T02:19:03;20.10;99.90
16114;DHT22;8161;-33.910;151.156;2022-08-19T02:21:31;20.10;99.90
16114;DHT22;8161;-33.910;151.156;2022-08-19T02:23:59;20.10;99.90
16114;DHT22;8161;-33.910;151.156;2022-08-19T02:26:27;20.00;99.90
16114;DHT22;8161;-33.910;151.156;2022-08-19T02:28:55;20.10;99.90
16114;DHT22;8161;-33.910;151.156;2022-08-19T02:31:24;20.00;99.90
16114;DHT22;8161;-33.910;151.156;2022-08-19T02:33:52;20.00;99.90
16114;DHT22;8161;-33.910;151.156;2022-08-19T02:36:19;20.00;99.90
16114;DHT22;8161;-33.910;151.156;2022-08-19T02:38:47;20.10;99.90
16114;DHT22;8161;-33.910;151.156;2022-08-19T02:41:20;20.20;99.90
16114;DHT22;8161;-33.910;151.156;2022-08-19T02:43:48;20.30;99.90
16114;DHT22;8161;-33.910;151.156;2022-08-19T02:46:30;20.50;99.90
16114;DHT22;8161;-33.910;151.156;2022-08-19T02:49:00;20.80;99.90
16114;DHT22;8161;-33.910;151.156;2022-08-19T02:51:34;21.00;99.90
16114;DHT22;8161;-33.910;151.156;2022-08-19T02:54:03;21.40;99.90
16114;DHT22;8161;-33.910;151.156;2022-08-19T02:56:31;21.60;99.90
16114;DHT22;8161;-33.910;151.156;2022-08-19T02:58:59;21.50;99.90
16114;DHT22;8161;-33.910;151.156;2022-08-19T03:01:32;21.50;99.90
16114;DHT22;8161;-33.910;151.156;2022-08-19T03:04:04;21.50;99.90
16114;DHT22;8161;-33.910;151.156;2022-08-19T03:06:35;21.30;99.90
16114;DHT22;8161;-33.910;151.156;2022-08-19T03:09:03;21.30;99.90
16114;DHT22;8161;-33.910;151.156;2022-08-19T03:11:32;21.30;99.90
16114;DHT22;8161;-33.910;151.156;2022-08-19T03:14:00;21.40;99.90
16114;DHT22;8161;-33.910;151.156;2022-08-19T03:16:31;21.50;99.90
16114;DHT22;8161;-33.910;151.156;2022-08-19T03:18:59;21.50;99.90
16114;DHT22;8161;-33.910;151.156;2022-08-19T03:21:29;21.40;99.90
16114;DHT22;8161;-33.910;151.156;2022-08-19T03:24:00;21.30;99.90
16114;DHT22;8161;-33.910;151.156;2022-08-19T03:26:28;21.20;99.90
16114;DHT22;8161;-33.910;151.156;2022-08-19T03:28:56;21.20;99.90
16114;DHT22;8161;-33.910;151.156;2022-08-19T03:31:24;21.10;99.90
16114;DHT22;8161;-33.910;151.156;2022-08-19T03:33:52;21.20;99.90
16114;DHT22;8161;-33.910;151.156;2022-08-19T03:36:22;21.30;99.90
16114;DHT22;8161;-33.910;151.156;2022-08-19T03:38:53;21.50;99.90
16114;DHT22;8161;-33.910;151.156;2022-08-19T03:41:29;21.70;99.90
16114;DHT22;8161;-33.910;151.156;2022-08-19T03:43:58;21.80;99.90
16114;DHT22;8161;-33.910;151.156;2022-08-19T03:46:29;21.70;99.90
16114;DHT22;8161;-33.910;151.156;2022-08-19T03:48:59;21.60;99.90
16114;DHT22;8161;-33.910;151.156;2022-08-19T03:51:29;21.50;99.90
16114;DHT22;8161;-33.910;151.156;2022-08-19T03:53:59;21.30;99.90
16114;DHT22;8161;-33.910;151.156;2022-08-19T03:56:28;21.10;99.90
16114;DHT22;8161;-33.910;151.156;2022-08-19T03:58:59;21.00;99.90
16114;DHT22;8161;-33.910;151.156;2022-08-19T04:01:28;20.90;99.90
16114;DHT22;8161;-33.910;151.156;2022-08-19T04:03:57;20.80;99.90
16114;DHT22;8161;-33.910;151.156;2022-08-19T04:06:27;20.70;99.90
16114;DHT22;8161;-33.910;151.156;2022-08-19T04:08:56;20.70;99.90
16114;DHT22;8161;-33.910;151.156;2022-08-19T04:11:30;20.70;99.90
16114;DHT22;8161;-33.910;151.156;2022-08-19T04:13:58;20.60;99.90
16114;DHT22;8161;-33.910;151.156;2022-08-19T04:16:27;20.50;99.90
16114;DHT22;8161;-33.910;151.156;2022-08-19T04:19:01;20.40;99.90
16114;DHT22;8161;-33.910;151.156;2022-08-19T04:21:29;20.20;99.90
16114;DHT22;8161;-33.910;151.156;2022-08-19T04:23:57;20.10;99.90
16114;DHT22;8161;-33.910;151.156;2022-08-19T04:26:27;20.00;99.90
16114;DHT22;8161;-33.910;151.156;2022-08-19T04:28:55;20.00;99.90
16114;DHT22;8161;-33.910;151.156;2022-08-19T04:31:25;20.10;99.90
16114;DHT22;8161;-33.910;151.156;2022-08-19T04:33:58;20.20;99.90
16114;DHT22;8161;-33.910;151.156;2022-08-19T04:36:32;20.30;99.90
16114;DHT22;8161;-33.910;151.156;2022-08-19T04:39:23;20.40;99.90
16114;DHT22;8161;-33.910;151.156;2022-08-19T04:41:49;20.50;99.90
16114;DHT22;8161;-33.910;151.156;2022-08-19T04:44:32;20.50;99.90
16114;DHT22;8161;-33.910;151.156;2022-08-19T04:47:01;20.80;99.90
16114;DHT22;8161;-33.910;151.156;2022-08-19T04:49:32;21.00;99.90
16114;DHT22;8161;-33.910;151.156;2022-08-19T04:51:59;21.20;99.90
16114;DHT22;8161;-33.910;151.156;2022-08-19T04:54:27;21.20;99.90
16114;DHT22;8161;-33.910;151.156;2022-08-19T04:56:55;21.20;99.90
16114;DHT22;8161;-33.910;151.156;2022-08-19T04:59:22;21.10;99.90
16114;DHT22;8161;-33.910;151.156;2022-08-19T05:01:49;20.90;99.90
16114;DHT22;8161;-33.910;151.156;2022-08-19T05:04:20;20.80;99.90
16114;DHT22;8161;-33.910;151.156;2022-08-19T05:06:48;20.60;99.90
16114;DHT22;8161;-33.910;151.156;2022-08-19T05:09:18;20.40;99.90
16114;DHT22;8161;-33.910;151.156;2022-08-19T05:11:46;20.00;99.90
16114;DHT22;8161;-33.910;151.156;2022-08-19T05:14:14;19.80;99.90
16114;DHT22;8161;-33.910;151.156;2022-08-19T05:16:41;19.50;99.90
16114;DHT22;8161;-33.910;151.156;2022-08-19T05:19:09;19.30;99.90
16114;DHT22;8161;-33.910;151.156;2022-08-19T05:21:50;19.10;99.90
16114;DHT22;8161;-33.910;151.156;2022-08-19T05:24:31;19.10;99.90
16114;DHT22;8161;-33.910;151.156;2022-08-19T05:27:01;19.00;99.90
16114;DHT22;8161;-33.910;151.156;2022-08-19T05:29:29;19.00;99.90
16114;DHT22;8161;-33.910;151.156;2022-08-19T05:32:03;19.10;99.90
16114;DHT22;8161;-33.910;151.156;2022-08-19T05:34:31;19.20;99.90
16114;DHT22;8161;-33.910;151.156;2022-08-19T05:37:00;19.50;99.90
16114;DHT22;8161;-33.910;151.156;2022-08-19T05:39:30;19.70;99.90
16114;DHT22;8161;-33.910;151.156;2022-08-19T05:42:03;19.80;99.90
16114;DHT22;8161;-33.910;151.156;2022-08-19T05:44:33;19.80;99.90
16114;DHT22;8161;-33.910;151.156;2022-08-19T05:47:03;20.10;99.90
16114;DHT22;8161;-33.910;151.156;2022-08-19T05:49:32;20.40;99.90
16114;DHT22;8161;-33.910;151.156;2022-08-19T05:52:04;20.70;99.90
16114;DHT22;8161;-33.910;151.156;2022-08-19T05:54:33;20.80;99.90
16114;DHT22;8161;-33.910;151.156;2022-08-19T05:57:02;20.70;99.90
16114;DHT22;8161;-33.910;151.156;2022-08-19T05:59:30;20.50;99.90
16114;DHT22;8161;-33.910;151.156;2022-08-19T06:01:57;20.20;99.90
16114;DHT22;8161;-33.910;151.156;2022-08-19T06:04:24;20.00;99.90
16114;DHT22;8161;-33.910;151.156;2022-08-19T06:06:54;19.90;99.90
16114;DHT22;8161;-33.910;151.156;2022-08-19T06:09:23;19.90;99.90
16114;DHT22;8161;-33.910;151.156;2022-08-19T06:11:53;20.00;99.90
16114;DHT22;8161;-33.910;151.156;2022-08-19T06:14:25;19.80;99.90
16114;DHT22;8161;-33.910;151.156;2022-08-19T06:16:53;19.60;99.90
16114;DHT22;8161;-33.910;151.156;2022-08-19T06:19:22;19.60;99.90
16114;DHT22;8161;-33.910;151.156;2022-08-19T06:21:51;19.80;99.90
16114;DHT22;8161;-33.910;151.156;2022-08-19T06:24:22;19.90;99.90
16114;DHT22;8161;-33.910;151.156;2022-08-19T06:26:54;20.00;99.90
16114;DHT22;8161;-33.910;151.156;2022-08-19T06:29:24;20.10;99.90
16114;DHT22;8161;-33.910;151.156;2022-08-19T06:31:58;20.30;99.90
16114;DHT22;8161;-33.910;151.156;2022-08-19T06:34:29;20.50;99.90
16114;DHT22;8161;-33.910;151.156;2022-08-19T06:37:01;20.50;99.90
16114;DHT22;8161;-33.910;151.156;2022-08-19T06:39:32;20.30;99.90
16114;DHT22;8161;-33.910;151.156;2022-08-19T06:42:02;20.00;99.90
16114;DHT22;8161;-33.910;151.156;2022-08-19T06:44:31;19.70;99.90
16114;DHT22;8161;-33.910;151.156;2022-08-19T06:47:03;19.50;99.90
16114;DHT22;8161;-33.910;151.156;2022-08-19T06:49:31;19.20;99.90
16114;DHT22;8161;-33.910;151.156;2022-08-19T06:52:00;18.90;99.90
16114;DHT22;8161;-33.910;151.156;2022-08-19T06:54:28;18.70;99.90
16114;DHT22;8161;-33.910;151.156;2022-08-19T06:56:59;18.90;99.90
16114;DHT22;8161;-33.910;151.156;2022-08-19T06:59:31;18.40;99.90
16114;DHT22;8161;-33.910;151.156;2022-08-19T07:02:02;18.20;99.90
16114;DHT22;8161;-33.910;151.156;2022-08-19T07:04:32;18.10;99.90
16114;DHT22;8161;-33.910;151.156;2022-08-19T07:07:09;17.80;99.90
16114;DHT22;8161;-33.910;151.156;2022-08-19T07:09:41;17.60;99.90
16114;DHT22;8161;-33.910;151.156;2022-08-19T07:12:12;17.50;99.90
16114;DHT22;8161;-33.910;151.156;2022-08-19T07:14:43;17.30;99.90
16114;DHT22;8161;-33.910;151.156;2022-08-19T07:17:12;17.20;99.90
16114;DHT22;8161;-33.910;151.156;2022-08-19T07:19:41;17.00;99.90
16114;DHT22;8161;-33.910;151.156;2022-08-19T07:22:09;16.80;99.90
16114;DHT22;8161;-33.910;151.156;2022-08-19T07:24:38;16.70;99.90
16114;DHT22;8161;-33.910;151.156;2022-08-19T07:27:06;16.60;99.90
16114;DHT22;8161;-33.910;151.156;2022-08-19T07:29:35;16.60;99.90
16114;DHT22;8161;-33.910;151.156;2022-08-19T07:32:04;16.50;99.90
16114;DHT22;8161;-33.910;151.156;2022-08-19T07:34:33;16.50;99.90
16114;DHT22;8161;-33.910;151.156;2022-08-19T07:37:07;16.50;99.90
16114;DHT22;8161;-33.910;151.156;2022-08-19T07:39:36;16.40;99.90
16114;DHT22;8161;-33.910;151.156;2022-08-19T07:42:07;16.40;99.90
16114;DHT22;8161;-33.910;151.156;2022-08-19T07:44:36;16.30;99.90
16114;DHT22;8161;-33.910;151.156;2022-08-19T07:47:05;16.30;99.90
16114;DHT22;8161;-33.910;151.156;2022-08-19T07:49:33;16.30;99.90
16114;DHT22;8161;-33.910;151.156;2022-08-19T07:52:06;16.30;99.90
16114;DHT22;8161;-33.910;151.156;2022-08-19T07:54:36;16.30;99.90
16114;DHT22;8161;-33.910;151.156;2022-08-19T07:57:04;16.20;99.90
16114;DHT22;8161;-33.910;151.156;2022-08-19T07:59:35;16.20;99.90
16114;DHT22;8161;-33.910;151.156;2022-08-19T08:02:03;16.90;99.90
16114;DHT22;8161;-33.910;151.156;2022-08-19T08:04:31;16.10;99.90
16114;DHT22;8161;-33.910;151.156;2022-08-19T08:07:12;16.00;99.90
16114;DHT22;8161;-33.910;151.156;2022-08-19T08:09:53;16.10;99.90
16114;DHT22;8161;-33.910;151.156;2022-08-19T08:12:28;16.10;99.90
16114;DHT22;8161;-33.910;151.156;2022-08-19T08:15:03;16.10;99.90
16114;DHT22;8161;-33.910;151.156;2022-08-19T08:17:31;16.00;99.90
16114;DHT22;8161;-33.910;151.156;2022-08-19T08:19:59;16.00;99.90
16114;DHT22;8161;-33.910;151.156;2022-08-19T08:22:26;16.00;99.90
16114;DHT22;8161;-33.910;151.156;2022-08-19T08:27:37;15.80;99.90
16114;DHT22;8161;-33.910;151.156;2022-08-19T08:30:16;15.80;99.90
16114;DHT22;8161;-33.910;151.156;2022-08-19T08:32:44;15.70;99.90
16114;DHT22;8161;-33.910;151.156;2022-08-19T08:35:14;15.70;99.90
16114;DHT22;8161;-33.910;151.156;2022-08-19T08:37:43;15.60;99.90
16114;DHT22;8161;-33.910;151.156;2022-08-19T08:45:50;15.50;99.90
16114;DHT22;8161;-33.910;151.156;2022-08-19T08:48:34;15.50;99.90
16114;DHT22;8161;-33.910;151.156;2022-08-19T08:51:07;15.40;99.90
16114;DHT22;8161;-33.910;151.156;2022-08-19T08:53:37;15.40;99.90
16114;DHT22;8161;-33.910;151.156;2022-08-19T08:56:06;15.40;99.90
16114;DHT22;8161;-33.910;151.156;2022-08-19T09:01:25;15.20;99.90
16114;DHT22;8161;-33.910;151.156;2022-08-19T09:03:54;15.20;99.90
16114;DHT22;8161;-33.910;151.156;2022-08-19T09:09:25;15.20;99.90
16114;DHT22;8161;-33.910;151.156;2022-08-19T09:14:47;15.10;99.90
16114;DHT22;8161;-33.910;151.156;2022-08-19T09:17:15;15.10;99.90
16114;DHT22;8161;-33.910;151.156;2022-08-19T09:19:56;15.10;99.90
16114;DHT22;8161;-33.910;151.156;2022-08-19T09:22:24;15.10;99.90
16114;DHT22;8161;-33.910;151.156;2022-08-19T09:24:53;15.00;99.90
16114;DHT22;8161;-33.910;151.156;2022-08-19T09:27:22;15.00;99.90
16114;DHT22;8161;-33.910;151.156;2022-08-19T09:29:53;15.00;99.90
16114;DHT22;8161;-33.910;151.156;2022-08-19T09:32:21;15.00;99.90
16114;DHT22;8161;-33.910;151.156;2022-08-19T09:34:49;15.00;99.90
16114;DHT22;8161;-33.910;151.156;2022-08-19T09:37:21;15.10;99.90
16114;DHT22;8161;-33.910;151.156;2022-08-19T09:39:48;15.10;99.90
16114;DHT22;8161;-33.910;151.156;2022-08-19T09:42:16;15.00;99.90
16114;DHT22;8161;-33.910;151.156;2022-08-19T09:44:44;14.90;99.90
16114;DHT22;8161;-33.910;151.156;2022-08-19T09:47:12;14.90;99.90
16114;DHT22;8161;-33.910;151.156;2022-08-19T09:49:41;14.80;99.90
16114;DHT22;8161;-33.910;151.156;2022-08-19T09:52:10;14.80;99.90
16114;DHT22;8161;-33.910;151.156;2022-08-19T09:54:38;14.80;99.90
16114;DHT22;8161;-33.910;151.156;2022-08-19T09:57:06;14.80;99.90
16114;DHT22;8161;-33.910;151.156;2022-08-19T09:59:34;14.80;99.90
16114;DHT22;8161;-33.910;151.156;2022-08-19T10:02:02;14.80;99.90
16114;DHT22;8161;-33.910;151.156;2022-08-19T10:04:30;14.70;99.90
16114;DHT22;8161;-33.910;151.156;2022-08-19T10:07:11;14.70;99.90
16114;DHT22;8161;-33.910;151.156;2022-08-19T10:09:38;14.70;99.90
16114;DHT22;8161;-33.910;151.156;2022-08-19T10:12:08;14.70;99.90
16114;DHT22;8161;-33.910;151.156;2022-08-19T10:14:36;14.70;99.90
16114;DHT22;8161;-33.910;151.156;2022-08-19T10:17:03;14.60;99.90
16114;DHT22;8161;-33.910;151.156;2022-08-19T10:19:31;14.60;99.90
16114;DHT22;8161;-33.910;151.156;2022-08-19T10:22:06;14.60;99.90
16114;DHT22;8161;-33.910;151.156;2022-08-19T10:24:34;14.50;99.90
16114;DHT22;8161;-33.910;151.156;2022-08-19T10:27:02;14.50;99.90
16114;DHT22;8161;-33.910;151.156;2022-08-19T10:29:31;14.60;99.90
16114;DHT22;8161;-33.910;151.156;2022-08-19T10:32:07;14.50;99.90
16114;DHT22;8161;-33.910;151.156;2022-08-19T10:34:37;14.50;99.90
16114;DHT22;8161;-33.910;151.156;2022-08-19T10:37:05;14.50;99.90
16114;DHT22;8161;-33.910;151.156;2022-08-19T10:39:35;14.40;99.90
16114;DHT22;8161;-33.910;151.156;2022-08-19T10:42:06;14.40;99.90
16114;DHT22;8161;-33.910;151.156;2022-08-19T10:44:37;14.40;99.90
16114;DHT22;8161;-33.910;151.156;2022-08-19T10:47:05;14.40;99.90
16114;DHT22;8161;-33.910;151.156;2022-08-19T10:49:32;14.30;99.90
16114;DHT22;8161;-33.910;151.156;2022-08-19T10:52:19;14.30;99.90
16114;DHT22;8161;-33.910;151.156;2022-08-19T10:55:05;14.20;99.90
16114;DHT22;8161;-33.910;151.156;2022-08-19T10:57:46;14.30;99.90
16114;DHT22;8161;-33.910;151.156;2022-08-19T11:00:14;14.20;99.90
16114;DHT22;8161;-33.910;151.156;2022-08-19T11:02:41;14.10;99.90
16114;DHT22;8161;-33.910;151.156;2022-08-19T11:05:09;14.00;99.90
16114;DHT22;8161;-33.910;151.156;2022-08-19T11:07:39;14.00;99.90
16114;DHT22;8161;-33.910;151.156;2022-08-19T11:10:08;13.90;99.90
16114;DHT22;8161;-33.910;151.156;2022-08-19T11:12:40;13.90;99.90
16114;DHT22;8161;-33.910;151.156;2022-08-19T11:15:09;13.80;99.90
16114;DHT22;8161;-33.910;151.156;2022-08-19T11:17:39;13.80;99.90
16114;DHT22;8161;-33.910;151.156;2022-08-19T11:20:08;13.80;99.90
16114;DHT22;8161;-33.910;151.156;2022-08-19T11:22:35;13.70;99.90
16114;DHT22;8161;-33.910;151.156;2022-08-19T11:25:03;13.70;99.90
16114;DHT22;8161;-33.910;151.156;2022-08-19T11:27:31;13.70;99.90
16114;DHT22;8161;-33.910;151.156;2022-08-19T11:29:58;13.70;99.90
16114;DHT22;8161;-33.910;151.156;2022-08-19T11:32:26;13.60;99.90
16114;DHT22;8161;-33.910;151.156;2022-08-19T11:34:53;13.60;99.90
16114;DHT22;8161;-33.910;151.156;2022-08-19T11:37:21;13.50;99.90
16114;DHT22;8161;-33.910;151.156;2022-08-19T11:39:48;13.50;99.90
16114;DHT22;8161;-33.910;151.156;2022-08-19T11:42:15;13.50;99.90
16114;DHT22;8161;-33.910;151.156;2022-08-19T11:44:56;13.50;99.90
16114;DHT22;8161;-33.910;151.156;2022-08-19T11:47:24;13.50;99.90
16114;DHT22;8161;-33.910;151.156;2022-08-19T11:49:51;13.50;99.90
16114;DHT22;8161;-33.910;151.156;2022-08-19T11:52:19;13.50;99.90
16114;DHT22;8161;-33.910;151.156;2022-08-19T11:54:46;13.50;99.90
16114;DHT22;8161;-33.910;151.156;2022-08-19T11:57:14;13.50;99.90
16114;DHT22;8161;-33.910;151.156;2022-08-19T11:59:49;13.60;99.90
16114;DHT22;8161;-33.910;151.156;2022-08-19T12:02:16;13.60;99.90
16114;DHT22;8161;-33.910;151.156;2022-08-19T12:04:43;13.60;99.90
16114;DHT22;8161;-33.910;151.156;2022-08-19T12:07:11;13.50;99.90
16114;DHT22;8161;-33.910;151.156;2022-08-19T12:09:38;13.60;99.90
16114;DHT22;8161;-33.910;151.156;2022-08-19T12:12:06;13.60;99.90
16114;DHT22;8161;-33.910;151.156;2022-08-19T12:14:33;13.60;99.90
16114;DHT22;8161;-33.910;151.156;2022-08-19T12:17:02;13.60;99.90
16114;DHT22;8161;-33.910;151.156;2022-08-19T12:19:31;13.60;99.90
16114;DHT22;8161;-33.910;151.156;2022-08-19T12:22:01;13.50;99.90
16114;DHT22;8161;-33.910;151.156;2022-08-19T12:24:33;13.60;99.90
16114;DHT22;8161;-33.910;151.156;2022-08-19T12:27:01;13.50;99.90
16114;DHT22;8161;-33.910;151.156;2022-08-19T12:29:29;13.60;99.90
16114;DHT22;8161;-33.910;151.156;2022-08-19T12:31:58;13.50;99.90
16114;DHT22;8161;-33.910;151.156;2022-08-19T12:34:30;13.50;99.90
16114;DHT22;8161;-33.910;151.156;2022-08-19T12:37:02;13.50;99.90
16114;DHT22;8161;-33.910;151.156;2022-08-19T12:39:35;13.50;99.90
16114;DHT22;8161;-33.910;151.156;2022-08-19T12:42:03;13.50;99.90
16114;DHT22;8161;-33.910;151.156;2022-08-19T12:44:30;13.40;99.90
16114;DHT22;8161;-33.910;151.156;2022-08-19T12:46:59;13.50;99.90
16114;DHT22;8161;-33.910;151.156;2022-08-19T12:49:28;13.40;99.90
16114;DHT22;8161;-33.910;151.156;2022-08-19T12:51:55;13.40;99.90
16114;DHT22;8161;-33.910;151.156;2022-08-19T12:54:24;13.40;99.90
16114;DHT22;8161;-33.910;151.156;2022-08-19T12:56:51;13.40;99.90
16114;DHT22;8161;-33.910;151.156;2022-08-19T12:59:19;13.30;99.90
16114;DHT22;8161;-33.910;151.156;2022-08-19T13:01:49;13.30;99.90
16114;DHT22;8161;-33.910;151.156;2022-08-19T13:04:17;13.30;99.90
16114;DHT22;8161;-33.910;151.156;2022-08-19T13:06:45;13.20;99.90
16114;DHT22;8161;-33.910;151.156;2022-08-19T13:09:12;13.20;99.90
16114;DHT22;8161;-33.910;151.156;2022-08-19T13:11:40;13.10;99.90
16114;DHT22;8161;-33.910;151.156;2022-08-19T13:14:08;13.10;99.90
16114;DHT22;8161;-33.910;151.156;2022-08-19T13:16:36;13.10;99.90
16114;DHT22;8161;-33.910;151.156;2022-08-19T13:19:04;13.00;99.90
16114;DHT22;8161;-33.910;151.156;2022-08-19T13:21:31;13.10;99.90
16114;DHT22;8161;-33.910;151.156;2022-08-19T13:23:59;13.10;99.90
16114;DHT22;8161;-33.910;151.156;2022-08-19T13:26:26;13.10;99.90
16114;DHT22;8161;-33.910;151.156;2022-08-19T13:28:53;13.10;99.90
16114;DHT22;8161;-33.910;151.156;2022-08-19T13:31:40;13.10;99.90
16114;DHT22;8161;-33.910;151.156;2022-08-19T13:34:31;13.10;99.90
16114;DHT22;8161;-33.910;151.156;2022-08-19T13:37:01;13.00;99.90
16114;DHT22;8161;-33.910;151.156;2022-08-19T13:39:33;13.00;99.90
16114;DHT22;8161;-33.910;151.156;2022-08-19T13:42:01;13.00;99.90
16114;DHT22;8161;-33.910;151.156;2022-08-19T13:44:31;12.90;99.90
16114;DHT22;8161;-33.910;151.156;2022-08-19T13:47:03;12.80;99.90
16114;DHT22;8161;-33.910;151.156;2022-08-19T13:49:35;12.70;99.90
16114;DHT22;8161;-33.910;151.156;2022-08-19T13:52:04;12.70;99.90
16114;DHT22;8161;-33.910;151.156;2022-08-19T13:54:31;12.60;99.90
16114;DHT22;8161;-33.910;151.156;2022-08-19T13:56:59;12.60;99.90
16114;DHT22;8161;-33.910;151.156;2022-08-19T13:59:26;12.60;99.90
16114;DHT22;8161;-33.910;151.156;2022-08-19T14:01:58;12.60;99.90
16114;DHT22;8161;-33.910;151.156;2022-08-19T14:04:25;12.70;99.90
16114;DHT22;8161;-33.910;151.156;2022-08-19T14:06:53;12.70;99.90
16114;DHT22;8161;-33.910;151.156;2022-08-19T14:09:21;12.70;99.90
16114;DHT22;8161;-33.910;151.156;2022-08-19T14:11:48;12.70;99.90
16114;DHT22;8161;-33.910;151.156;2022-08-19T14:14:17;12.80;99.90
16114;DHT22;8161;-33.910;151.156;2022-08-19T14:16:44;12.80;99.90
16114;DHT22;8161;-33.910;151.156;2022-08-19T14:19:11;12.70;99.90
16114;DHT22;8161;-33.910;151.156;2022-08-19T14:21:39;12.80;99.90
16114;DHT22;8161;-33.910;151.156;2022-08-19T14:24:08;12.80;99.90
16114;DHT22;8161;-33.910;151.156;2022-08-19T14:26:35;12.80;99.90
16114;DHT22;8161;-33.910;151.156;2022-08-19T14:29:03;12.80;99.90
16114;DHT22;8161;-33.910;151.156;2022-08-19T14:31:30;12.80;99.90
16114;DHT22;8161;-33.910;151.156;2022-08-19T14:33:57;12.80;99.90
16114;DHT22;8161;-33.910;151.156;2022-08-19T14:36:25;12.90;99.90
16114;DHT22;8161;-33.910;151.156;2022-08-19T14:38:53;12.80;99.90
16114;DHT22;8161;-33.910;151.156;2022-08-19T14:41:22;12.80;99.90
16114;DHT22;8161;-33.910;151.156;2022-08-19T14:43:51;12.70;99.90
16114;DHT22;8161;-33.910;151.156;2022-08-19T14:46:22;12.80;99.90
16114;DHT22;8161;-33.910;151.156;2022-08-19T14:48:50;12.80;99.90
16114;DHT22;8161;-33.910;151.156;2022-08-19T14:51:19;12.80;99.90
16114;DHT22;8161;-33.910;151.156;2022-08-19T14:53:46;12.70;99.90
16114;DHT22;8161;-33.910;151.156;2022-08-19T14:56:20;12.70;99.90
16114;DHT22;8161;-33.910;151.156;2022-08-19T14:58:47;12.60;99.90
16114;DHT22;8161;-33.910;151.156;2022-08-19T15:01:18;12.60;99.90
16114;DHT22;8161;-33.910;151.156;2022-08-19T15:03:49;12.60;99.90
16114;DHT22;8161;-33.910;151.156;2022-08-19T15:06:19;12.60;99.90
16114;DHT22;8161;-33.910;151.156;2022-08-19T15:08:46;12.60;99.90
16114;DHT22;8161;-33.910;151.156;2022-08-19T15:11:16;12.60;99.90
16114;DHT22;8161;-33.910;151.156;2022-08-19T15:13:44;12.60;99.90
16114;DHT22;8161;-33.910;151.156;2022-08-19T15:16:13;12.60;99.90
16114;DHT22;8161;-33.910;151.156;2022-08-19T15:18:44;12.50;99.90
16114;DHT22;8161;-33.910;151.156;2022-08-19T15:21:13;12.50;99.90
16114;DHT22;8161;-33.910;151.156;2022-08-19T15:23:45;12.50;99.90
16114;DHT22;8161;-33.910;151.156;2022-08-19T15:26:14;12.50;99.90
16114;DHT22;8161;-33.910;151.156;2022-08-19T15:28:42;12.50;99.90
16114;DHT22;8161;-33.910;151.156;2022-08-19T15:31:10;12.50;99.90
16114;DHT22;8161;-33.910;151.156;2022-08-19T15:33:39;12.50;99.90
16114;DHT22;8161;-33.910;151.156;2022-08-19T15:36:11;12.50;99.90
16114;DHT22;8161;-33.910;151.156;2022-08-19T15:38:38;12.50;99.90